KDLN/DLN METAR and TAF weather

Enter ICAO airport designator
Station Type Date Time Source
KDLN METAR 2019/09/20 19:53 UTC NOAA

KDLN 201953Z AUTO 15005KT 10SM -RA SCT037 OVC047 08/07 A2994 RMK AO2 SLP127 P0001 T00780067


Station Type Date Time Source
KDLN Decoded METAR 2019/09/20 19:53 UTC NOAA

DILLON AIRPORT, MT, United States (KDLN) 45-15N 112-33W 1591M
Sep 20, 2019 - 03:53 PM EDT / 2019.09.20 1953 UTC
Wind: from the SSE (150 degrees) at 6 MPH (5 KT):0
Visibility: 10 mile(s):0
Sky conditions: overcast
Weather: light rain
Precipitation last hour: 0.01 inches
Temperature: 46.0 F (7.8 C)
Dew Point: 44.1 F (6.7 C)
Relative Humidity: 92%
Pressure (altimeter): 29.94 in. Hg (1013 hPa)
ob: KDLN 201953Z AUTO 15005KT 10SM -RA SCT037 OVC047 08/07 A2994 RMK AO2 SLP127 P0001 T00780067
cycle: 20

Station Type Date Time Source
KDLN TAF UTC NOAA

Error!

Example: see airport list